world map with TEZ marked

TEZ - Airport

This information may not be accurate or current and is not valid for navigation or flight planning. No warranty of fitness for any purpose is made or implied.

flag of India

Donate via PayPal

Additional information is available on the NEW Great Circle Mapper

Location
City:  Tezpur, Assam, India
ICAO / IATA:VETZ / TEZ

Details
Type:Airport (Aerodrome, Airfield)
Use:Military
Latitude:26°42'33"N (26.709139)
Longitude:92°47'05"E (92.784739)
Datum:WGS 1984
Elevation:240 ft (73 m)
Runways:1
Longest:9010 × 150 ft (2746 × 45.5 m)

Time
Timezone:UTC+5:30 (DST+7:30)
Local Time:

Weather
METAR:VETZ  (expired)
TAF:VETZ  040930Z 0412/0424 05005KT 6000 FEW090 SCT250 BECMG 0416/0418 VRB02KT 4000 BR SCT250 BECMG 0420/0422 2000 BR SCT090

Related Locations
Nearby:
Farthest:SCFX: 12005 mi / 19320 km
Isla San Félix, Desventuradas Islands, VS, CL

Find:

   beyond  
but within

Other Information
Maps:
Sources:

  


 


Great Circle Mapper   Great Circle Mapper
Great Circle Mapper FAQ   Great Circle Mapper FAQ
  Karl's Home Page
KLS²   KLS² Home
   GC on Facebook
Airlines of the World   Airlines of the World
Donate via PayPal


Copyright © 2004-2019, Karl L. Swartz. All rights reserved.
All trademarks mentioned herein belong to their respective owners.

Please see credits for attribution and copyright information.

Karl Swartz <karl@kls2.com>
  Powered by FreeBSD
Valid HTML 4.01!
Labeled with ICRA
hCard Microformat
Geo Microformat